sensor_id;sensor_type;location;lat;lon;timestamp;pressure;altitude;pressure_sealevel;temperature;humidity
22649;BME280;11491;41.942;24.220;2024-03-17T00:01:09;90075.88;;;3.06;80.32
22649;BME280;11491;41.942;24.220;2024-03-17T00:03:37;90075.00;;;3.11;79.64
22649;BME280;11491;41.942;24.220;2024-03-17T00:06:05;90087.81;;;3.04;79.92
22649;BME280;11491;41.942;24.220;2024-03-17T00:08:31;90091.91;;;2.96;80.01
22649;BME280;11491;41.942;24.220;2024-03-17T00:10:58;90080.34;;;2.92;80.74
22649;BME280;11491;41.942;24.220;2024-03-17T00:13:23;90078.63;;;3.01;80.14
22649;BME280;11491;41.942;24.220;2024-03-17T00:15:51;90072.16;;;3.07;79.74
22649;BME280;11491;41.942;24.220;2024-03-17T00:18:17;90079.47;;;3.10;79.41
22649;BME280;11491;41.942;24.220;2024-03-17T00:20:44;90078.72;;;2.96;79.70
22649;BME280;11491;41.942;24.220;2024-03-17T00:23:11;90072.63;;;2.82;80.65
22649;BME280;11491;41.942;24.220;2024-03-17T00:25:38;90079.56;;;2.64;80.69
22649;BME280;11491;41.942;24.220;2024-03-17T00:28:05;90079.16;;;2.70;80.86
22649;BME280;11491;41.942;24.220;2024-03-17T00:30:32;90076.00;;;2.68;81.00
22649;BME280;11491;41.942;24.220;2024-03-17T00:32:58;90072.59;;;2.68;81.33
22649;BME280;11491;41.942;24.220;2024-03-17T00:35:25;90069.28;;;2.62;81.79
22649;BME280;11491;41.942;24.220;2024-03-17T00:37:51;90071.00;;;2.53;82.35
22649;BME280;11491;41.942;24.220;2024-03-17T00:40:20;90074.38;;;2.72;81.72
22649;BME280;11491;41.942;24.220;2024-03-17T00:42:46;90062.75;;;2.73;80.97
22649;BME280;11491;41.942;24.220;2024-03-17T00:45:15;90070.94;;;2.86;79.80
22649;BME280;11491;41.942;24.220;2024-03-17T00:47:41;90067.44;;;2.76;79.75
22649;BME280;11491;41.942;24.220;2024-03-17T00:50:09;90078.19;;;2.66;80.20
22649;BME280;11491;41.942;24.220;2024-03-17T00:52:37;90074.47;;;2.67;81.04
22649;BME280;11491;41.942;24.220;2024-03-17T00:55:04;90064.84;;;2.57;81.01
22649;BME280;11491;41.942;24.220;2024-03-17T00:57:31;90065.44;;;2.68;81.66
22649;BME280;11491;41.942;24.220;2024-03-17T00:59:58;90069.00;;;2.77;80.65
22649;BME280;11491;41.942;24.220;2024-03-17T01:02:24;90069.19;;;2.67;80.51
22649;BME280;11491;41.942;24.220;2024-03-17T01:04:51;90067.03;;;2.69;80.77
22649;BME280;11491;41.942;24.220;2024-03-17T01:07:17;90063.13;;;2.80;80.03
22649;BME280;11491;41.942;24.220;2024-03-17T01:09:46;90065.81;;;2.48;80.54
22649;BME280;11491;41.942;24.220;2024-03-17T01:12:12;90068.63;;;2.37;81.19
22649;BME280;11491;41.942;24.220;2024-03-17T01:14:40;90063.25;;;2.43;81.97
22649;BME280;11491;41.942;24.220;2024-03-17T01:17:06;90063.59;;;2.22;83.35
22649;BME280;11491;41.942;24.220;2024-03-17T01:19:34;90072.28;;;2.42;82.53
22649;BME280;11491;41.942;24.220;2024-03-17T01:22:00;90064.75;;;2.49;82.07
22649;BME280;11491;41.942;24.220;2024-03-17T01:24:27;90070.50;;;2.51;82.36
22649;BME280;11491;41.942;24.220;2024-03-17T01:26:57;90064.16;;;2.52;82.14
22649;BME280;11491;41.942;24.220;2024-03-17T01:29:23;90058.22;;;2.60;81.73
22649;BME280;11491;41.942;24.220;2024-03-17T01:31:51;90069.19;;;2.67;80.71
22649;BME280;11491;41.942;24.220;2024-03-17T01:34:18;90067.22;;;2.59;81.29
22649;BME280;11491;41.942;24.220;2024-03-17T01:36:44;90052.16;;;2.59;80.76
22649;BME280;11491;41.942;24.220;2024-03-17T01:39:10;90060.84;;;2.60;81.47
22649;BME280;11491;41.942;24.220;2024-03-17T01:41:36;90058.34;;;2.69;80.78
22649;BME280;11491;41.942;24.220;2024-03-17T01:44:03;90043.97;;;2.61;80.39
22649;BME280;11491;41.942;24.220;2024-03-17T01:46:29;90044.91;;;2.65;80.58
22649;BME280;11491;41.942;24.220;2024-03-17T01:48:58;90049.72;;;2.63;80.09
22649;BME280;11491;41.942;24.220;2024-03-17T01:51:24;90049.25;;;2.61;80.36
22649;BME280;11491;41.942;24.220;2024-03-17T01:53:51;90050.88;;;2.57;80.67
22649;BME280;11491;41.942;24.220;2024-03-17T01:56:18;90042.75;;;2.53;80.24
22649;BME280;11491;41.942;24.220;2024-03-17T01:58:47;90047.84;;;2.50;81.23
22649;BME280;11491;41.942;24.220;2024-03-17T02:01:13;90049.88;;;2.53;80.95
22649;BME280;11491;41.942;24.220;2024-03-17T02:03:41;90049.78;;;2.44;81.67
22649;BME280;11491;41.942;24.220;2024-03-17T02:06:08;90045.28;;;2.45;81.51
22649;BME280;11491;41.942;24.220;2024-03-17T02:08:47;90048.44;;;2.47;80.81
22649;BME280;11491;41.942;24.220;2024-03-17T02:11:24;90051.16;;;2.42;81.05
22649;BME280;11491;41.942;24.220;2024-03-17T02:13:52;90044.69;;;2.48;81.32
22649;BME280;11491;41.942;24.220;2024-03-17T02:16:18;90043.16;;;2.47;81.20
22649;BME280;11491;41.942;24.220;2024-03-17T02:18:45;90042.97;;;2.57;79.70
22649;BME280;11491;41.942;24.220;2024-03-17T02:21:12;90038.84;;;2.51;79.51
22649;BME280;11491;41.942;24.220;2024-03-17T02:23:41;90041.19;;;2.52;79.41
22649;BME280;11491;41.942;24.220;2024-03-17T02:26:07;90045.19;;;2.50;80.28
22649;BME280;11491;41.942;24.220;2024-03-17T02:28:40;90045.88;;;2.55;79.94
22649;BME280;11491;41.942;24.220;2024-03-17T02:31:08;90051.16;;;2.55;79.78
22649;BME280;11491;41.942;24.220;2024-03-17T02:33:35;90036.78;;;2.48;80.11
22649;BME280;11491;41.942;24.220;2024-03-17T02:36:01;90042.81;;;2.34;80.53
22649;BME280;11491;41.942;24.220;2024-03-17T02:38:29;90031.69;;;2.37;81.28
22649;BME280;11491;41.942;24.220;2024-03-17T02:41:15;90044.19;;;2.46;80.95
22649;BME280;11491;41.942;24.220;2024-03-17T02:43:41;90045.47;;;2.48;81.16
22649;BME280;11491;41.942;24.220;2024-03-17T02:46:11;90035.50;;;2.31;81.46
22649;BME280;11491;41.942;24.220;2024-03-17T02:48:38;90051.16;;;2.42;81.33
22649;BME280;11491;41.942;24.220;2024-03-17T02:51:10;90047.84;;;2.50;81.25
22649;BME280;11491;41.942;24.220;2024-03-17T02:53:37;90040.41;;;2.52;81.34
22649;BME280;11491;41.942;24.220;2024-03-17T02:56:04;90040.19;;;2.48;81.72
22649;BME280;11491;41.942;24.220;2024-03-17T02:58:33;90045.88;;;2.42;81.65
22649;BME280;11491;41.942;24.220;2024-03-17T03:01:00;90034.06;;;2.53;81.98
22649;BME280;11491;41.942;24.220;2024-03-17T03:03:27;90042.59;;;2.64;81.54
22649;BME280;11491;41.942;24.220;2024-03-17T03:05:53;90038.78;;;2.56;81.72
22649;BME280;11491;41.942;24.220;2024-03-17T03:08:22;90031.72;;;2.65;82.06
22649;BME280;11491;41.942;24.220;2024-03-17T03:10:49;90029.84;;;2.52;82.28
22649;BME280;11491;41.942;24.220;2024-03-17T03:13:15;90031.22;;;2.63;82.26
22649;BME280;11491;41.942;24.220;2024-03-17T03:15:44;90030.06;;;2.69;81.38
22649;BME280;11491;41.942;24.220;2024-03-17T03:18:13;90024.69;;;2.74;80.45
22649;BME280;11491;41.942;24.220;2024-03-17T03:20:40;90023.22;;;2.68;80.26
22649;BME280;11491;41.942;24.220;2024-03-17T03:23:07;90032.22;;;2.67;81.01
22649;BME280;11491;41.942;24.220;2024-03-17T03:25:34;90032.00;;;2.50;81.75
22649;BME280;11491;41.942;24.220;2024-03-17T03:28:01;90027.28;;;2.33;82.92
22649;BME280;11491;41.942;24.220;2024-03-17T03:30:28;90033.31;;;2.33;83.24
22649;BME280;11491;41.942;24.220;2024-03-17T03:32:56;90031.22;;;2.49;83.18
22649;BME280;11491;41.942;24.220;2024-03-17T03:35:23;90033.78;;;2.68;82.19
22649;BME280;11491;41.942;24.220;2024-03-17T03:37:52;90045.31;;;2.72;81.47
22649;BME280;11491;41.942;24.220;2024-03-17T03:40:19;90033.88;;;2.77;81.19
22649;BME280;11491;41.942;24.220;2024-03-17T03:42:46;90041.63;;;2.73;81.76
22649;BME280;11491;41.942;24.220;2024-03-17T03:45:13;90034.34;;;2.65;82.15
22649;BME280;11491;41.942;24.220;2024-03-17T03:47:41;90041.03;;;2.76;82.10
22649;BME280;11491;41.942;24.220;2024-03-17T03:50:10;90029.09;;;2.79;81.84
22649;BME280;11491;41.942;24.220;2024-03-17T03:52:37;90041.03;;;2.76;82.17
22649;BME280;11491;41.942;24.220;2024-03-17T03:55:07;90044.63;;;2.67;82.54
22649;BME280;11491;41.942;24.220;2024-03-17T03:57:35;90045.00;;;2.60;82.76
22649;BME280;11491;41.942;24.220;2024-03-17T04:00:03;90046.50;;;2.66;83.00
22649;BME280;11491;41.942;24.220;2024-03-17T04:02:31;90044.44;;;2.77;82.83
22649;BME280;11491;41.942;24.220;2024-03-17T04:04:59;90050.81;;;2.90;82.93
22649;BME280;11491;41.942;24.220;2024-03-17T04:07:27;90046.50;;;2.94;83.07
22649;BME280;11491;41.942;24.220;2024-03-17T04:09:54;90045.16;;;2.96;82.57
22649;BME280;11491;41.942;24.220;2024-03-17T04:12:21;90043.56;;;2.95;82.55
22649;BME280;11491;41.942;24.220;2024-03-17T04:14:48;90057.56;;;2.96;82.79
22649;BME280;11491;41.942;24.220;2024-03-17T04:17:18;90055.41;;;2.98;83.33
22649;BME280;11491;41.942;24.220;2024-03-17T04:19:47;90054.91;;;3.10;82.94
22649;BME280;11491;41.942;24.220;2024-03-17T04:22:14;90054.53;;;3.16;82.77
22649;BME280;11491;41.942;24.220;2024-03-17T04:24:43;90058.06;;;3.26;83.21
22649;BME280;11491;41.942;24.220;2024-03-17T04:27:10;90052.97;;;3.29;82.95
22649;BME280;11491;41.942;24.220;2024-03-17T04:29:37;90063.69;;;3.33;82.77
22649;BME280;11491;41.942;24.220;2024-03-17T04:32:04;90065.88;;;3.31;82.92
22649;BME280;11491;41.942;24.220;2024-03-17T04:34:30;90064.59;;;3.42;82.70
22649;BME280;11491;41.942;24.220;2024-03-17T04:36:57;90071.34;;;3.48;82.60
22649;BME280;11491;41.942;24.220;2024-03-17T04:39:24;90073.88;;;3.53;82.15
22649;BME280;11491;41.942;24.220;2024-03-17T04:41:52;90064.91;;;3.40;83.02
22649;BME280;11491;41.942;24.220;2024-03-17T04:44:19;90073.50;;;3.46;83.49
22649;BME280;11491;41.942;24.220;2024-03-17T04:46:46;90076.63;;;3.48;83.17
22649;BME280;11491;41.942;24.220;2024-03-17T04:49:13;90075.06;;;3.47;83.67
22649;BME280;11491;41.942;24.220;2024-03-17T04:51:39;90073.19;;;3.48;84.02
22649;BME280;11491;41.942;24.220;2024-03-17T04:54:06;90080.53;;;3.51;83.43
22649;BME280;11491;41.942;24.220;2024-03-17T04:56:33;90080.13;;;3.57;82.90
22649;BME280;11491;41.942;24.220;2024-03-17T04:59:01;90075.94;;;3.56;83.84
22649;BME280;11491;41.942;24.220;2024-03-17T05:01:28;90087.78;;;3.59;84.03
22649;BME280;11491;41.942;24.220;2024-03-17T05:03:56;90096.97;;;3.61;83.28
22649;BME280;11491;41.942;24.220;2024-03-17T05:06:23;90077.88;;;3.64;82.95
22649;BME280;11491;41.942;24.220;2024-03-17T05:08:49;90089.50;;;3.77;81.80
22649;BME280;11491;41.942;24.220;2024-03-17T05:11:16;90082.47;;;3.73;81.51
22649;BME280;11491;41.942;24.220;2024-03-17T05:13:44;90101.06;;;3.81;82.77
22649;BME280;11491;41.942;24.220;2024-03-17T05:16:12;90089.59;;;3.86;81.88
22649;BME280;11491;41.942;24.220;2024-03-17T05:18:39;90086.78;;;3.69;82.50
22649;BME280;11491;41.942;24.220;2024-03-17T05:21:06;90098.50;;;3.76;83.45
22649;BME280;11491;41.942;24.220;2024-03-17T05:23:36;90094.81;;;3.63;83.66
22649;BME280;11491;41.942;24.220;2024-03-17T05:26:04;90095.97;;;3.71;83.87
22649;BME280;11491;41.942;24.220;2024-03-17T05:28:31;90091.47;;;3.72;83.88
22649;BME280;11491;41.942;24.220;2024-03-17T05:30:57;90102.66;;;3.69;83.94
22649;BME280;11491;41.942;24.220;2024-03-17T05:33:26;90101.66;;;3.78;83.97
22649;BME280;11491;41.942;24.220;2024-03-17T05:35:54;90100.06;;;3.91;83.98
22649;BME280;11491;41.942;24.220;2024-03-17T05:38:22;90110.00;;;4.08;83.68
22649;BME280;11491;41.942;24.220;2024-03-17T05:40:53;90108.63;;;4.10;82.95
22649;BME280;11491;41.942;24.220;2024-03-17T05:43:20;90107.41;;;4.17;83.14
22649;BME280;11491;41.942;24.220;2024-03-17T05:45:50;90105.88;;;4.16;83.36
22649;BME280;11491;41.942;24.220;2024-03-17T05:48:17;90116.81;;;4.23;83.86
22649;BME280;11491;41.942;24.220;2024-03-17T05:50:46;90103.28;;;4.24;83.61
22649;BME280;11491;41.942;24.220;2024-03-17T05:53:13;90110.69;;;4.36;83.10
22649;BME280;11491;41.942;24.220;2024-03-17T05:55:40;90113.47;;;4.53;82.42
22649;BME280;11491;41.942;24.220;2024-03-17T05:58:08;90108.81;;;4.59;81.63
22649;BME280;11491;41.942;24.220;2024-03-17T06:00:35;90109.38;;;4.70;81.74
22649;BME280;11491;41.942;24.220;2024-03-17T06:03:02;90113.63;;;4.80;81.07
22649;BME280;11491;41.942;24.220;2024-03-17T06:05:31;90120.19;;;4.82;81.39
22649;BME280;11491;41.942;24.220;2024-03-17T06:08:00;90111.44;;;4.82;81.45
22649;BME280;11491;41.942;24.220;2024-03-17T06:10:28;90114.78;;;4.87;81.28
22649;BME280;11491;41.942;24.220;2024-03-17T06:12:55;90118.84;;;4.93;81.53
22649;BME280;11491;41.942;24.220;2024-03-17T06:15:22;90121.09;;;5.09;81.08
22649;BME280;11491;41.942;24.220;2024-03-17T06:17:50;90114.66;;;5.32;80.90
22649;BME280;11491;41.942;24.220;2024-03-17T06:20:17;90115.34;;;5.47;80.82
22649;BME280;11491;41.942;24.220;2024-03-17T06:22:44;90116.63;;;5.58;80.65
22649;BME280;11491;41.942;24.220;2024-03-17T06:25:12;90114.94;;;5.62;80.79
22649;BME280;11491;41.942;24.220;2024-03-17T06:27:39;90115.44;;;5.81;81.07
22649;BME280;11491;41.942;24.220;2024-03-17T06:30:06;90114.25;;;6.05;80.31
22649;BME280;11491;41.942;24.220;2024-03-17T06:32:39;90121.16;;;6.32;80.04
22649;BME280;11491;41.942;24.220;2024-03-17T06:35:06;90120.38;;;6.58;79.17
22649;BME280;11491;41.942;24.220;2024-03-17T06:37:33;90124.91;;;6.75;77.18
22649;BME280;11491;41.942;24.220;2024-03-17T06:40:00;90125.84;;;6.79;77.75
22649;BME280;11491;41.942;24.220;2024-03-17T06:42:28;90121.75;;;6.99;77.98
22649;BME280;11491;41.942;24.220;2024-03-17T06:44:55;90122.66;;;7.11;76.92
22649;BME280;11491;41.942;24.220;2024-03-17T06:47:21;90120.47;;;7.14;75.13
22649;BME280;11491;41.942;24.220;2024-03-17T06:49:48;90129.81;;;7.20;75.75
22649;BME280;11491;41.942;24.220;2024-03-17T06:52:15;90129.19;;;7.23;75.67
22649;BME280;11491;41.942;24.220;2024-03-17T06:54:42;90130.41;;;7.34;76.92
22649;BME280;11491;41.942;24.220;2024-03-17T06:57:08;90130.34;;;7.51;75.71
22649;BME280;11491;41.942;24.220;2024-03-17T06:59:36;90135.31;;;7.62;76.40
22649;BME280;11491;41.942;24.220;2024-03-17T07:02:04;90133.97;;;7.85;76.22
22649;BME280;11491;41.942;24.220;2024-03-17T07:04:31;90130.75;;;8.01;74.24
22649;BME280;11491;41.942;24.220;2024-03-17T07:06:58;90142.38;;;8.26;74.02
22649;BME280;11491;41.942;24.220;2024-03-17T07:09:25;90144.28;;;8.46;74.42
22649;BME280;11491;41.942;24.220;2024-03-17T07:11:51;90138.66;;;8.48;73.23
22649;BME280;11491;41.942;24.220;2024-03-17T07:14:18;90146.78;;;8.51;72.22
22649;BME280;11491;41.942;24.220;2024-03-17T07:16:46;90149.22;;;8.56;73.28
22649;BME280;11491;41.942;24.220;2024-03-17T07:19:13;90154.25;;;8.79;73.33
22649;BME280;11491;41.942;24.220;2024-03-17T07:21:40;90148.97;;;9.12;72.52
22649;BME280;11491;41.942;24.220;2024-03-17T07:24:07;90137.13;;;9.34;70.82
22649;BME280;11491;41.942;24.220;2024-03-17T07:26:33;90143.06;;;9.52;69.73
22649;BME280;11491;41.942;24.220;2024-03-17T07:29:00;90133.94;;;9.53;68.30
22649;BME280;11491;41.942;24.220;2024-03-17T07:31:27;90151.25;;;8.80;69.69
22649;BME280;11491;41.942;24.220;2024-03-17T07:33:55;90150.47;;;8.59;69.20
22649;BME280;11491;41.942;24.220;2024-03-17T07:36:23;90147.09;;;8.50;70.16
22649;BME280;11491;41.942;24.220;2024-03-17T07:38:49;90142.75;;;8.36;70.97
22649;BME280;11491;41.942;24.220;2024-03-17T07:41:17;90138.50;;;8.44;69.83
22649;BME280;11491;41.942;24.220;2024-03-17T07:43:45;90142.75;;;8.36;69.83
22649;BME280;11491;41.942;24.220;2024-03-17T07:46:12;90147.31;;;8.36;70.00
22649;BME280;11491;41.942;24.220;2024-03-17T07:48:40;90139.13;;;8.50;70.43
22649;BME280;11491;41.942;24.220;2024-03-17T07:51:10;90137.81;;;8.56;70.04
22649;BME280;11491;41.942;24.220;2024-03-17T07:53:37;90140.59;;;8.80;69.20
22649;BME280;11491;41.942;24.220;2024-03-17T07:56:06;90141.75;;;8.92;68.38
22649;BME280;11491;41.942;24.220;2024-03-17T07:58:35;90138.91;;;8.97;68.07
22649;BME280;11491;41.942;24.220;2024-03-17T08:01:04;90141.59;;;9.09;65.84
22649;BME280;11491;41.942;24.220;2024-03-17T08:03:33;90142.50;;;9.13;66.69
22649;BME280;11491;41.942;24.220;2024-03-17T08:06:01;90134.34;;;8.97;65.15
22649;BME280;11491;41.942;24.220;2024-03-17T08:08:30;90138.00;;;8.93;66.11
22649;BME280;11491;41.942;24.220;2024-03-17T08:10:57;90144.75;;;8.90;66.76
22649;BME280;11491;41.942;24.220;2024-03-17T08:13:24;90140.06;;;8.66;68.14
22649;BME280;11491;41.942;24.220;2024-03-17T08:15:56;90141.66;;;8.67;68.35
22649;BME280;11491;41.942;24.220;2024-03-17T08:18:23;90135.53;;;8.46;67.66
22649;BME280;11491;41.942;24.220;2024-03-17T08:20:50;90137.06;;;8.47;68.63
22649;BME280;11491;41.942;24.220;2024-03-17T08:23:17;90137.78;;;8.77;69.12
22649;BME280;11491;41.942;24.220;2024-03-17T08:25:51;90143.31;;;8.93;68.19
22649;BME280;11491;41.942;24.220;2024-03-17T08:28:19;90135.78;;;8.95;67.33
22649;BME280;11491;41.942;24.220;2024-03-17T08:30:51;90145.88;;;9.22;67.46
22649;BME280;11491;41.942;24.220;2024-03-17T08:33:17;90124.81;;;9.42;68.90
22649;BME280;11491;41.942;24.220;2024-03-17T08:35:52;90139.31;;;9.78;66.76
22649;BME280;11491;41.942;24.220;2024-03-17T08:38:19;90132.88;;;10.16;64.26
22649;BME280;11491;41.942;24.220;2024-03-17T08:40:47;90127.06;;;10.50;63.89
22649;BME280;11491;41.942;24.220;2024-03-17T08:43:14;90128.94;;;11.03;63.30
22649;BME280;11491;41.942;24.220;2024-03-17T08:45:41;90125.41;;;11.27;60.98
22649;BME280;11491;41.942;24.220;2024-03-17T08:48:08;90103.09;;;11.23;59.90
22649;BME280;11491;41.942;24.220;2024-03-17T08:50:36;90127.91;;;10.79;60.67
22649;BME280;11491;41.942;24.220;2024-03-17T08:53:03;90123.72;;;10.66;59.96
22649;BME280;11491;41.942;24.220;2024-03-17T08:55:30;90123.31;;;10.02;62.14
22649;BME280;11491;41.942;24.220;2024-03-17T08:57:58;90117.75;;;9.95;63.28
22649;BME280;11491;41.942;24.220;2024-03-17T09:00:24;90111.50;;;9.91;61.72
22649;BME280;11491;41.942;24.220;2024-03-17T09:02:51;90114.84;;;9.88;62.29
22649;BME280;11491;41.942;24.220;2024-03-17T09:05:18;90109.91;;;9.41;63.50
22649;BME280;11491;41.942;24.220;2024-03-17T09:07:45;90109.19;;;9.19;62.88
22649;BME280;11491;41.942;24.220;2024-03-17T09:10:12;90114.56;;;9.44;63.17
22649;BME280;11491;41.942;24.220;2024-03-17T09:12:39;90110.84;;;10.06;65.63
22649;BME280;11491;41.942;24.220;2024-03-17T09:15:08;90106.25;;;10.96;61.00
22649;BME280;11491;41.942;24.220;2024-03-17T09:17:37;90104.88;;;11.91;59.72
22649;BME280;11491;41.942;24.220;2024-03-17T09:20:06;90103.41;;;12.60;54.94
22649;BME280;11491;41.942;24.220;2024-03-17T09:22:37;90099.56;;;12.61;53.75
22649;BME280;11491;41.942;24.220;2024-03-17T09:25:05;90106.50;;;12.11;52.28
22649;BME280;11491;41.942;24.220;2024-03-17T09:27:34;90101.06;;;11.48;54.05
22649;BME280;11491;41.942;24.220;2024-03-17T09:30:03;90103.03;;;10.91;53.62
22649;BME280;11491;41.942;24.220;2024-03-17T09:32:33;90100.28;;;11.31;55.85
22649;BME280;11491;41.942;24.220;2024-03-17T09:35:00;90090.34;;;12.07;52.32
22649;BME280;11491;41.942;24.220;2024-03-17T09:37:26;90092.34;;;12.46;56.06
22649;BME280;11491;41.942;24.220;2024-03-17T09:39:53;90093.47;;;13.00;51.72
22649;BME280;11491;41.942;24.220;2024-03-17T09:42:23;90094.13;;;13.12;48.33
22649;BME280;11491;41.942;24.220;2024-03-17T09:44:50;90097.91;;;13.50;49.83
22649;BME280;11491;41.942;24.220;2024-03-17T09:47:20;90091.06;;;13.76;47.87
22649;BME280;11491;41.942;24.220;2024-03-17T09:49:49;90098.84;;;13.81;44.54
22649;BME280;11491;41.942;24.220;2024-03-17T09:52:22;90094.53;;;13.14;47.23
22649;BME280;11491;41.942;24.220;2024-03-17T09:54:54;90097.34;;;13.41;46.97
22649;BME280;11491;41.942;24.220;2024-03-17T09:57:22;90094.56;;;13.99;44.12
22649;BME280;11491;41.942;24.220;2024-03-17T09:59:51;90095.75;;;13.79;42.88
22649;BME280;11491;41.942;24.220;2024-03-17T10:02:18;90100.28;;;13.75;43.07
22649;BME280;11491;41.942;24.220;2024-03-17T10:04:45;90088.56;;;13.64;45.35
22649;BME280;11491;41.942;24.220;2024-03-17T10:07:13;90093.38;;;13.74;44.07
22649;BME280;11491;41.942;24.220;2024-03-17T10:09:41;90092.41;;;14.09;43.21
22649;BME280;11491;41.942;24.220;2024-03-17T10:12:36;90095.72;;;14.25;43.40
22649;BME280;11491;41.942;24.220;2024-03-17T10:15:04;90089.31;;;14.56;40.91
22649;BME280;11491;41.942;24.220;2024-03-17T10:17:31;90094.09;;;14.70;40.76
22649;BME280;11491;41.942;24.220;2024-03-17T10:20:13;90097.19;;;15.33;42.16
22649;BME280;11491;41.942;24.220;2024-03-17T10:23:01;90091.41;;;15.64;42.53
22649;BME280;11491;41.942;24.220;2024-03-17T10:25:29;90091.97;;;15.47;39.19
22649;BME280;11491;41.942;24.220;2024-03-17T10:27:57;90084.16;;;15.01;38.38
22649;BME280;11491;41.942;24.220;2024-03-17T10:30:24;90081.97;;;14.30;39.43
22649;BME280;11491;41.942;24.220;2024-03-17T10:32:54;90081.25;;;14.33;39.53
22649;BME280;11491;41.942;24.220;2024-03-17T10:35:32;90061.81;;;14.70;38.62
22649;BME280;11491;41.942;24.220;2024-03-17T10:38:03;90075.16;;;14.90;38.58
22649;BME280;11491;41.942;24.220;2024-03-17T10:40:31;90075.50;;;15.18;39.40
22649;BME280;11491;41.942;24.220;2024-03-17T10:43:00;90075.03;;;15.13;36.84
22649;BME280;11491;41.942;24.220;2024-03-17T10:45:28;90069.75;;;14.90;39.69
22649;BME280;11491;41.942;24.220;2024-03-17T10:47:59;90075.97;;;14.94;41.74
22649;BME280;11491;41.942;24.220;2024-03-17T10:50:30;90068.16;;;15.49;38.13
22649;BME280;11491;41.942;24.220;2024-03-17T10:53:02;90072.78;;;15.52;41.49
22649;BME280;11491;41.942;24.220;2024-03-17T10:55:40;90070.44;;;15.47;42.72
22649;BME280;11491;41.942;24.220;2024-03-17T10:58:20;90048.66;;;16.00;42.80
22649;BME280;11491;41.942;24.220;2024-03-17T11:00:49;90058.06;;;16.21;42.41
22649;BME280;11491;41.942;24.220;2024-03-17T11:03:18;90065.81;;;16.26;38.85
22649;BME280;11491;41.942;24.220;2024-03-17T11:05:47;90056.94;;;15.81;40.08
22649;BME280;11491;41.942;24.220;2024-03-17T11:08:17;90067.97;;;15.35;41.31
22649;BME280;11491;41.942;24.220;2024-03-17T11:10:49;90056.91;;;15.06;41.68
22649;BME280;11491;41.942;24.220;2024-03-17T11:13:23;90058.44;;;15.07;40.30
22649;BME280;11491;41.942;24.220;2024-03-17T11:15:50;90057.06;;;14.90;41.11
22649;BME280;11491;41.942;24.220;2024-03-17T11:18:42;90059.88;;;15.31;39.70
22649;BME280;11491;41.942;24.220;2024-03-17T11:21:22;90038.25;;;15.61;40.28
22649;BME280;11491;41.942;24.220;2024-03-17T11:23:59;90050.91;;;15.94;41.21
22649;BME280;11491;41.942;24.220;2024-03-17T11:26:27;90051.78;;;16.06;43.50
22649;BME280;11491;41.942;24.220;2024-03-17T11:28:54;90058.56;;;15.55;43.03
22649;BME280;11491;41.942;24.220;2024-03-17T11:31:43;90065.09;;;15.50;43.65
22649;BME280;11491;41.942;24.220;2024-03-17T11:37:05;90057.16;;;14.67;44.99
22649;BME280;11491;41.942;24.220;2024-03-17T11:39:51;90059.66;;;14.26;44.85
22649;BME280;11491;41.942;24.220;2024-03-17T11:42:30;90054.13;;;14.69;46.69
22649;BME280;11491;41.942;24.220;2024-03-17T11:45:03;90049.03;;;15.61;47.02
22649;BME280;11491;41.942;24.220;2024-03-17T11:47:36;90046.50;;;16.24;43.40
22649;BME280;11491;41.942;24.220;2024-03-17T11:50:05;90043.56;;;16.43;43.27
22649;BME280;11491;41.942;24.220;2024-03-17T11:52:31;90048.09;;;16.25;42.37
22649;BME280;11491;41.942;24.220;2024-03-17T11:54:59;90047.91;;;16.03;42.56
22649;BME280;11491;41.942;24.220;2024-03-17T11:57:26;90034.31;;;16.41;44.08
22649;BME280;11491;41.942;24.220;2024-03-17T11:59:53;90041.41;;;16.67;40.91
22649;BME280;11491;41.942;24.220;2024-03-17T12:02:21;90044.09;;;16.11;43.28
22649;BME280;11491;41.942;24.220;2024-03-17T12:04:49;90042.16;;;16.64;42.28
22649;BME280;11491;41.942;24.220;2024-03-17T12:07:16;90039.28;;;16.97;42.27
22649;BME280;11491;41.942;24.220;2024-03-17T12:09:44;90039.44;;;17.33;40.29
22649;BME280;11491;41.942;24.220;2024-03-17T12:12:16;90036.19;;;16.95;39.74
22649;BME280;11491;41.942;24.220;2024-03-17T12:14:43;90039.41;;;16.56;40.68
22649;BME280;11491;41.942;24.220;2024-03-17T12:17:11;90039.06;;;16.62;40.10
22649;BME280;11491;41.942;24.220;2024-03-17T12:19:39;90029.78;;;16.59;39.73
22649;BME280;11491;41.942;24.220;2024-03-17T12:22:06;90031.28;;;16.49;39.32
22649;BME280;11491;41.942;24.220;2024-03-17T12:24:34;90031.03;;;16.13;39.71
22649;BME280;11491;41.942;24.220;2024-03-17T12:27:01;90033.59;;;15.58;40.45
22649;BME280;11491;41.942;24.220;2024-03-17T12:29:33;90031.88;;;15.39;41.09
22649;BME280;11491;41.942;24.220;2024-03-17T12:32:02;90029.16;;;15.36;42.47
22649;BME280;11491;41.942;24.220;2024-03-17T12:34:32;90022.25;;;15.76;42.55
22649;BME280;11491;41.942;24.220;2024-03-17T12:36:59;90018.78;;;16.27;42.15
22649;BME280;11491;41.942;24.220;2024-03-17T12:39:28;90022.94;;;16.13;41.12
22649;BME280;11491;41.942;24.220;2024-03-17T12:42:04;90008.81;;;16.31;40.93
22649;BME280;11491;41.942;24.220;2024-03-17T12:44:34;90012.66;;;16.30;40.13
22649;BME280;11491;41.942;24.220;2024-03-17T12:47:01;90016.09;;;15.75;40.21
22649;BME280;11491;41.942;24.220;2024-03-17T12:49:29;90013.78;;;15.40;41.11
22649;BME280;11491;41.942;24.220;2024-03-17T12:51:55;90013.56;;;14.84;42.78
22649;BME280;11491;41.942;24.220;2024-03-17T12:54:24;90015.09;;;14.85;42.37
22649;BME280;11491;41.942;24.220;2024-03-17T12:56:51;90004.50;;;15.00;43.24
22649;BME280;11491;41.942;24.220;2024-03-17T12:59:43;90010.13;;;15.21;42.16
22649;BME280;11491;41.942;24.220;2024-03-17T13:02:27;90008.53;;;15.13;42.40
22649;BME280;11491;41.942;24.220;2024-03-17T13:05:14;89998.09;;;15.12;41.79
22649;BME280;11491;41.942;24.220;2024-03-17T13:07:42;89996.69;;;14.88;42.88